Merrow, Connecticut
Current Conditions -  °F | °C
As of 8:52 PM on Monday 20 Oct 2014 (Local Time) from KIJD Reporting Station
Clear Clear  
Wind Chill: 44°   Ceiling: Unl
Heat Index: 44°   Visibility: 10mi
Dew Point: 39°   Wind: 0mph
Humidity: 82%   Direction: NA
Pressure: 30.01"   Gusts: NA
Location:  41.8014°N, 72.3066°W
Report Text: KIJD 210052Z AUTO 00000KT 10SM CLR 07/04 A3001 RMK AO2 SLP163 T00670039
Loading
Personal Weather Stations






























Interactive Weather Map
Tropical Storm Tracking
New forecast layout! Learn more

10-Day Weather Forecast

Advertisements
Track Severe Weather on mobile